sensor_id;sensor_type;location;lat;lon;timestamp;temperature;humidity
37844;DHT22;63793;57.632;18.292;2023-08-20T00:01:23;17.50;99.90
37844;DHT22;63793;57.632;18.292;2023-08-20T00:03:51;17.40;99.90
37844;DHT22;63793;57.632;18.292;2023-08-20T00:06:18;17.50;99.90
37844;DHT22;63793;57.632;18.292;2023-08-20T00:08:46;17.40;99.90
37844;DHT22;63793;57.632;18.292;2023-08-20T00:11:13;17.40;99.90
37844;DHT22;63793;57.632;18.292;2023-08-20T00:13:40;17.40;99.90
37844;DHT22;63793;57.632;18.292;2023-08-20T00:16:08;17.40;99.90
37844;DHT22;63793;57.632;18.292;2023-08-20T00:18:36;17.40;99.90
37844;DHT22;63793;57.632;18.292;2023-08-20T00:21:05;17.40;99.90
37844;DHT22;63793;57.632;18.292;2023-08-20T00:23:32;17.50;99.90
37844;DHT22;63793;57.632;18.292;2023-08-20T00:25:59;17.50;99.90
37844;DHT22;63793;57.632;18.292;2023-08-20T00:28:26;17.50;99.90
37844;DHT22;63793;57.632;18.292;2023-08-20T00:30:53;17.40;99.90
37844;DHT22;63793;57.632;18.292;2023-08-20T00:33:20;17.50;99.90
37844;DHT22;63793;57.632;18.292;2023-08-20T00:35:47;17.50;99.90
37844;DHT22;63793;57.632;18.292;2023-08-20T00:38:14;17.50;99.90
37844;DHT22;63793;57.632;18.292;2023-08-20T00:40:41;17.40;99.90
37844;DHT22;63793;57.632;18.292;2023-08-20T00:43:08;17.50;99.90
37844;DHT22;63793;57.632;18.292;2023-08-20T00:45:35;17.40;99.90
37844;DHT22;63793;57.632;18.292;2023-08-20T00:48:04;17.50;99.90
37844;DHT22;63793;57.632;18.292;2023-08-20T00:50:32;17.40;99.90
37844;DHT22;63793;57.632;18.292;2023-08-20T00:53:01;17.40;99.90
37844;DHT22;63793;57.632;18.292;2023-08-20T00:55:29;17.40;99.90
37844;DHT22;63793;57.632;18.292;2023-08-20T00:57:56;17.40;99.90
37844;DHT22;63793;57.632;18.292;2023-08-20T01:00:23;17.50;99.90
37844;DHT22;63793;57.632;18.292;2023-08-20T01:02:51;17.50;99.90
37844;DHT22;63793;57.632;18.292;2023-08-20T01:05:18;17.50;99.90
37844;DHT22;63793;57.632;18.292;2023-08-20T01:07:51;17.50;99.90
37844;DHT22;63793;57.632;18.292;2023-08-20T01:12:54;17.50;99.90
37844;DHT22;63793;57.632;18.292;2023-08-20T01:15:23;17.50;99.90
37844;DHT22;63793;57.632;18.292;2023-08-20T01:17:51;17.50;99.90
37844;DHT22;63793;57.632;18.292;2023-08-20T01:20:18;17.50;99.90
37844;DHT22;63793;57.632;18.292;2023-08-20T01:23:12;17.50;99.90
37844;DHT22;63793;57.632;18.292;2023-08-20T01:25:58;17.50;99.90
37844;DHT22;63793;57.632;18.292;2023-08-20T01:28:29;17.50;99.90
37844;DHT22;63793;57.632;18.292;2023-08-20T01:30:58;17.50;99.90
37844;DHT22;63793;57.632;18.292;2023-08-20T01:33:26;17.50;99.90
37844;DHT22;63793;57.632;18.292;2023-08-20T01:35:54;17.50;99.90
37844;DHT22;63793;57.632;18.292;2023-08-20T01:38:22;17.50;99.90
37844;DHT22;63793;57.632;18.292;2023-08-20T01:40:49;17.50;99.90
37844;DHT22;63793;57.632;18.292;2023-08-20T01:43:16;17.50;99.90
37844;DHT22;63793;57.632;18.292;2023-08-20T01:45:43;17.50;99.90
37844;DHT22;63793;57.632;18.292;2023-08-20T01:48:10;17.50;99.90
37844;DHT22;63793;57.632;18.292;2023-08-20T01:50:37;17.50;99.90
37844;DHT22;63793;57.632;18.292;2023-08-20T01:53:04;17.50;99.90
37844;DHT22;63793;57.632;18.292;2023-08-20T01:55:31;17.50;99.90
37844;DHT22;63793;57.632;18.292;2023-08-20T01:57:59;17.50;99.90
37844;DHT22;63793;57.632;18.292;2023-08-20T02:00:26;17.50;99.90
37844;DHT22;63793;57.632;18.292;2023-08-20T02:02:57;17.50;99.90
37844;DHT22;63793;57.632;18.292;2023-08-20T02:05:24;17.50;99.90
37844;DHT22;63793;57.632;18.292;2023-08-20T02:07:51;17.50;99.90
37844;DHT22;63793;57.632;18.292;2023-08-20T02:10:19;17.50;99.90
37844;DHT22;63793;57.632;18.292;2023-08-20T02:12:46;17.50;99.90
37844;DHT22;63793;57.632;18.292;2023-08-20T02:15:13;17.50;99.90
37844;DHT22;63793;57.632;18.292;2023-08-20T02:17:39;17.50;99.90
37844;DHT22;63793;57.632;18.292;2023-08-20T02:20:08;17.50;99.90
37844;DHT22;63793;57.632;18.292;2023-08-20T02:22:38;17.50;99.90
37844;DHT22;63793;57.632;18.292;2023-08-20T02:25:05;17.50;99.90
37844;DHT22;63793;57.632;18.292;2023-08-20T02:27:32;17.50;99.90
37844;DHT22;63793;57.632;18.292;2023-08-20T02:29:59;17.50;99.90
37844;DHT22;63793;57.632;18.292;2023-08-20T02:32:26;17.50;99.90
37844;DHT22;63793;57.632;18.292;2023-08-20T02:34:53;17.50;99.90
37844;DHT22;63793;57.632;18.292;2023-08-20T02:37:20;17.50;99.90
37844;DHT22;63793;57.632;18.292;2023-08-20T02:39:47;17.50;99.90
37844;DHT22;63793;57.632;18.292;2023-08-20T02:42:14;17.50;99.90
37844;DHT22;63793;57.632;18.292;2023-08-20T02:44:41;17.50;99.90
37844;DHT22;63793;57.632;18.292;2023-08-20T02:47:08;17.50;99.90
37844;DHT22;63793;57.632;18.292;2023-08-20T02:49:35;17.50;99.90
37844;DHT22;63793;57.632;18.292;2023-08-20T02:52:02;17.50;99.90
37844;DHT22;63793;57.632;18.292;2023-08-20T02:54:29;17.50;99.90
37844;DHT22;63793;57.632;18.292;2023-08-20T02:56:59;17.50;99.90
37844;DHT22;63793;57.632;18.292;2023-08-20T02:59:26;17.50;99.90
37844;DHT22;63793;57.632;18.292;2023-08-20T03:01:53;17.40;99.90
37844;DHT22;63793;57.632;18.292;2023-08-20T03:04:20;17.50;99.90
37844;DHT22;63793;57.632;18.292;2023-08-20T03:06:47;17.40;99.90
37844;DHT22;63793;57.632;18.292;2023-08-20T03:09:14;17.50;99.90
37844;DHT22;63793;57.632;18.292;2023-08-20T03:11:41;17.40;99.90
37844;DHT22;63793;57.632;18.292;2023-08-20T03:14:08;17.50;99.90
37844;DHT22;63793;57.632;18.292;2023-08-20T03:16:34;17.50;99.90
37844;DHT22;63793;57.632;18.292;2023-08-20T03:19:01;17.40;99.90
37844;DHT22;63793;57.632;18.292;2023-08-20T03:21:29;17.40;99.90
37844;DHT22;63793;57.632;18.292;2023-08-20T03:23:56;17.40;99.90
37844;DHT22;63793;57.632;18.292;2023-08-20T03:26:23;17.40;99.90
37844;DHT22;63793;57.632;18.292;2023-08-20T03:28:50;17.40;99.90
37844;DHT22;63793;57.632;18.292;2023-08-20T03:31:17;17.50;99.90
37844;DHT22;63793;57.632;18.292;2023-08-20T03:33:46;17.40;99.90
37844;DHT22;63793;57.632;18.292;2023-08-20T03:36:12;17.40;99.90
37844;DHT22;63793;57.632;18.292;2023-08-20T03:38:41;17.40;99.90
37844;DHT22;63793;57.632;18.292;2023-08-20T03:41:08;17.40;99.90
37844;DHT22;63793;57.632;18.292;2023-08-20T03:43:35;17.40;99.90
37844;DHT22;63793;57.632;18.292;2023-08-20T03:46:02;17.40;99.90
37844;DHT22;63793;57.632;18.292;2023-08-20T03:48:29;17.40;99.90
37844;DHT22;63793;57.632;18.292;2023-08-20T03:50:56;17.40;99.90
37844;DHT22;63793;57.632;18.292;2023-08-20T03:53:23;17.40;99.90
37844;DHT22;63793;57.632;18.292;2023-08-20T03:55:50;17.40;99.90
37844;DHT22;63793;57.632;18.292;2023-08-20T03:58:17;17.40;99.90
37844;DHT22;63793;57.632;18.292;2023-08-20T04:00:44;17.40;99.90
37844;DHT22;63793;57.632;18.292;2023-08-20T04:03:11;17.40;99.90
37844;DHT22;63793;57.632;18.292;2023-08-20T04:05:39;17.40;99.90
37844;DHT22;63793;57.632;18.292;2023-08-20T04:08:06;17.40;99.90
37844;DHT22;63793;57.632;18.292;2023-08-20T04:10:33;17.40;99.90
37844;DHT22;63793;57.632;18.292;2023-08-20T04:13:00;17.40;99.90
37844;DHT22;63793;57.632;18.292;2023-08-20T04:15:27;17.40;99.90
37844;DHT22;63793;57.632;18.292;2023-08-20T04:17:55;17.40;99.90
37844;DHT22;63793;57.632;18.292;2023-08-20T04:20:22;17.40;99.90
37844;DHT22;63793;57.632;18.292;2023-08-20T04:22:49;17.40;99.90
37844;DHT22;63793;57.632;18.292;2023-08-20T04:25:16;17.40;99.90
37844;DHT22;63793;57.632;18.292;2023-08-20T04:27:43;17.40;99.90
37844;DHT22;63793;57.632;18.292;2023-08-20T04:30:11;17.40;99.90
37844;DHT22;63793;57.632;18.292;2023-08-20T04:32:38;17.40;99.90
37844;DHT22;63793;57.632;18.292;2023-08-20T04:35:05;17.40;99.90
37844;DHT22;63793;57.632;18.292;2023-08-20T04:37:33;17.40;99.90
37844;DHT22;63793;57.632;18.292;2023-08-20T04:40:01;17.40;99.90
37844;DHT22;63793;57.632;18.292;2023-08-20T04:42:29;17.50;99.90
37844;DHT22;63793;57.632;18.292;2023-08-20T04:44:56;17.40;99.90
37844;DHT22;63793;57.632;18.292;2023-08-20T04:47:24;17.40;99.90
37844;DHT22;63793;57.632;18.292;2023-08-20T04:49:51;17.50;99.90
37844;DHT22;63793;57.632;18.292;2023-08-20T04:52:19;17.40;99.90
37844;DHT22;63793;57.632;18.292;2023-08-20T04:54:48;17.50;99.90
37844;DHT22;63793;57.632;18.292;2023-08-20T04:57:16;17.40;99.90
37844;DHT22;63793;57.632;18.292;2023-08-20T04:59:43;17.50;99.90
37844;DHT22;63793;57.632;18.292;2023-08-20T05:02:20;17.50;99.90
37844;DHT22;63793;57.632;18.292;2023-08-20T05:04:53;17.50;99.90
37844;DHT22;63793;57.632;18.292;2023-08-20T05:07:20;17.50;99.90
37844;DHT22;63793;57.632;18.292;2023-08-20T05:09:47;17.50;99.90
37844;DHT22;63793;57.632;18.292;2023-08-20T05:12:14;17.50;99.90
37844;DHT22;63793;57.632;18.292;2023-08-20T05:14:41;17.50;99.90
37844;DHT22;63793;57.632;18.292;2023-08-20T05:17:07;17.50;99.90
37844;DHT22;63793;57.632;18.292;2023-08-20T05:19:34;17.50;99.90
37844;DHT22;63793;57.632;18.292;2023-08-20T05:22:01;17.50;99.90
37844;DHT22;63793;57.632;18.292;2023-08-20T05:24:32;17.50;99.90
37844;DHT22;63793;57.632;18.292;2023-08-20T05:27:12;17.50;99.90
37844;DHT22;63793;57.632;18.292;2023-08-20T05:29:43;17.50;99.90
37844;DHT22;63793;57.632;18.292;2023-08-20T05:32:10;17.50;99.90
37844;DHT22;63793;57.632;18.292;2023-08-20T05:34:37;17.60;99.90
37844;DHT22;63793;57.632;18.292;2023-08-20T05:37:04;17.60;99.90
37844;DHT22;63793;57.632;18.292;2023-08-20T05:39:37;17.60;99.90
37844;DHT22;63793;57.632;18.292;2023-08-20T05:42:05;17.70;99.90
37844;DHT22;63793;57.632;18.292;2023-08-20T05:44:32;17.70;99.90
37844;DHT22;63793;57.632;18.292;2023-08-20T05:47:00;17.70;99.90
37844;DHT22;63793;57.632;18.292;2023-08-20T05:49:28;17.80;99.90
37844;DHT22;63793;57.632;18.292;2023-08-20T05:51:57;17.80;99.90
37844;DHT22;63793;57.632;18.292;2023-08-20T05:54:24;17.90;99.90
37844;DHT22;63793;57.632;18.292;2023-08-20T05:56:57;17.90;99.90
37844;DHT22;63793;57.632;18.292;2023-08-20T05:59:24;17.90;99.90
37844;DHT22;63793;57.632;18.292;2023-08-20T06:01:52;17.90;99.90
37844;DHT22;63793;57.632;18.292;2023-08-20T06:04:20;18.00;99.90
37844;DHT22;63793;57.632;18.292;2023-08-20T06:06:47;18.00;99.90
37844;DHT22;63793;57.632;18.292;2023-08-20T06:09:14;18.00;99.90
37844;DHT22;63793;57.632;18.292;2023-08-20T06:11:41;18.10;99.90
37844;DHT22;63793;57.632;18.292;2023-08-20T06:14:07;18.10;99.90
37844;DHT22;63793;57.632;18.292;2023-08-20T06:16:34;18.10;99.90
37844;DHT22;63793;57.632;18.292;2023-08-20T06:19:01;18.20;99.90
37844;DHT22;63793;57.632;18.292;2023-08-20T06:21:31;18.20;99.90
37844;DHT22;63793;57.632;18.292;2023-08-20T06:23:58;18.20;99.90
37844;DHT22;63793;57.632;18.292;2023-08-20T06:26:25;18.20;99.90
37844;DHT22;63793;57.632;18.292;2023-08-20T06:28:52;18.20;99.90
37844;DHT22;63793;57.632;18.292;2023-08-20T06:31:19;18.20;99.90
37844;DHT22;63793;57.632;18.292;2023-08-20T06:33:47;18.30;99.90
37844;DHT22;63793;57.632;18.292;2023-08-20T06:36:14;18.30;99.90
37844;DHT22;63793;57.632;18.292;2023-08-20T06:38:41;18.30;99.90
37844;DHT22;63793;57.632;18.292;2023-08-20T06:41:08;18.30;99.90
37844;DHT22;63793;57.632;18.292;2023-08-20T06:43:35;18.40;99.90
37844;DHT22;63793;57.632;18.292;2023-08-20T06:46:02;18.50;99.90
37844;DHT22;63793;57.632;18.292;2023-08-20T06:48:29;18.50;99.90
37844;DHT22;63793;57.632;18.292;2023-08-20T06:50:55;18.50;99.90
37844;DHT22;63793;57.632;18.292;2023-08-20T06:53:22;18.50;99.90
37844;DHT22;63793;57.632;18.292;2023-08-20T06:55:49;18.60;99.90
37844;DHT22;63793;57.632;18.292;2023-08-20T06:58:16;18.60;99.90
37844;DHT22;63793;57.632;18.292;2023-08-20T07:00:43;18.60;99.90
37844;DHT22;63793;57.632;18.292;2023-08-20T07:03:10;18.60;99.90
37844;DHT22;63793;57.632;18.292;2023-08-20T07:05:37;18.70;99.90
37844;DHT22;63793;57.632;18.292;2023-08-20T07:08:04;18.70;99.90
37844;DHT22;63793;57.632;18.292;2023-08-20T07:10:31;18.70;99.90
37844;DHT22;63793;57.632;18.292;2023-08-20T07:12:57;18.70;99.90
37844;DHT22;63793;57.632;18.292;2023-08-20T07:15:24;18.80;99.90
37844;DHT22;63793;57.632;18.292;2023-08-20T07:17:51;18.80;99.90
37844;DHT22;63793;57.632;18.292;2023-08-20T07:20:18;18.70;99.90
37844;DHT22;63793;57.632;18.292;2023-08-20T07:22:45;18.80;99.90
37844;DHT22;63793;57.632;18.292;2023-08-20T07:25:12;18.80;99.90
37844;DHT22;63793;57.632;18.292;2023-08-20T07:27:39;18.90;99.90
37844;DHT22;63793;57.632;18.292;2023-08-20T07:30:07;18.90;99.90
37844;DHT22;63793;57.632;18.292;2023-08-20T07:32:34;19.00;99.90
37844;DHT22;63793;57.632;18.292;2023-08-20T07:35:00;19.00;99.90
37844;DHT22;63793;57.632;18.292;2023-08-20T07:37:27;19.00;99.90
37844;DHT22;63793;57.632;18.292;2023-08-20T07:39:54;19.00;99.90
37844;DHT22;63793;57.632;18.292;2023-08-20T07:42:21;19.00;99.90
37844;DHT22;63793;57.632;18.292;2023-08-20T07:44:48;19.00;99.90
37844;DHT22;63793;57.632;18.292;2023-08-20T07:47:15;19.10;99.90
37844;DHT22;63793;57.632;18.292;2023-08-20T07:49:42;19.10;99.90
37844;DHT22;63793;57.632;18.292;2023-08-20T07:52:09;19.20;99.90
37844;DHT22;63793;57.632;18.292;2023-08-20T07:54:35;19.20;99.90
37844;DHT22;63793;57.632;18.292;2023-08-20T07:57:03;19.30;99.90
37844;DHT22;63793;57.632;18.292;2023-08-20T07:59:30;19.40;99.90
37844;DHT22;63793;57.632;18.292;2023-08-20T08:01:57;19.50;99.90
37844;DHT22;63793;57.632;18.292;2023-08-20T08:04:24;19.40;99.90
37844;DHT22;63793;57.632;18.292;2023-08-20T08:06:50;19.40;99.90
37844;DHT22;63793;57.632;18.292;2023-08-20T08:09:21;19.40;99.90
37844;DHT22;63793;57.632;18.292;2023-08-20T08:11:49;19.50;99.90
37844;DHT22;63793;57.632;18.292;2023-08-20T08:14:16;19.50;99.90
37844;DHT22;63793;57.632;18.292;2023-08-20T08:16:44;19.50;99.90
37844;DHT22;63793;57.632;18.292;2023-08-20T08:19:11;19.60;99.90
37844;DHT22;63793;57.632;18.292;2023-08-20T08:21:38;19.60;99.90
37844;DHT22;63793;57.632;18.292;2023-08-20T08:24:05;19.60;99.90
37844;DHT22;63793;57.632;18.292;2023-08-20T08:26:34;19.70;99.90
37844;DHT22;63793;57.632;18.292;2023-08-20T08:29:05;19.70;99.90
37844;DHT22;63793;57.632;18.292;2023-08-20T08:31:33;19.80;99.90
37844;DHT22;63793;57.632;18.292;2023-08-20T08:34:01;19.90;99.90
37844;DHT22;63793;57.632;18.292;2023-08-20T08:36:29;20.00;99.90
37844;DHT22;63793;57.632;18.292;2023-08-20T08:38:56;20.00;99.90
37844;DHT22;63793;57.632;18.292;2023-08-20T08:41:25;20.00;99.90
37844;DHT22;63793;57.632;18.292;2023-08-20T08:43:55;19.90;99.90
37844;DHT22;63793;57.632;18.292;2023-08-20T08:46:23;20.00;99.90
37844;DHT22;63793;57.632;18.292;2023-08-20T08:48:51;20.00;99.90
37844;DHT22;63793;57.632;18.292;2023-08-20T08:51:19;20.00;99.90
37844;DHT22;63793;57.632;18.292;2023-08-20T08:53:46;20.00;99.90
37844;DHT22;63793;57.632;18.292;2023-08-20T08:56:13;20.00;99.90
37844;DHT22;63793;57.632;18.292;2023-08-20T08:58:40;20.10;99.90
37844;DHT22;63793;57.632;18.292;2023-08-20T09:01:07;20.10;99.90
37844;DHT22;63793;57.632;18.292;2023-08-20T09:03:34;20.10;99.90
37844;DHT22;63793;57.632;18.292;2023-08-20T09:06:02;20.20;99.90
37844;DHT22;63793;57.632;18.292;2023-08-20T09:08:34;20.20;99.90
37844;DHT22;63793;57.632;18.292;2023-08-20T09:11:02;20.20;99.90
37844;DHT22;63793;57.632;18.292;2023-08-20T09:13:37;20.20;99.90
37844;DHT22;63793;57.632;18.292;2023-08-20T09:16:06;20.20;99.90
37844;DHT22;63793;57.632;18.292;2023-08-20T09:18:38;20.30;99.90
37844;DHT22;63793;57.632;18.292;2023-08-20T09:21:09;20.30;99.90
37844;DHT22;63793;57.632;18.292;2023-08-20T09:23:37;20.20;99.90
37844;DHT22;63793;57.632;18.292;2023-08-20T09:26:06;20.20;99.90
37844;DHT22;63793;57.632;18.292;2023-08-20T09:28:44;20.30;99.90
37844;DHT22;63793;57.632;18.292;2023-08-20T09:31:12;20.40;99.90
37844;DHT22;63793;57.632;18.292;2023-08-20T09:33:54;20.50;99.90
37844;DHT22;63793;57.632;18.292;2023-08-20T09:36:32;20.50;99.90
37844;DHT22;63793;57.632;18.292;2023-08-20T09:39:02;20.50;99.90
37844;DHT22;63793;57.632;18.292;2023-08-20T09:41:30;20.50;99.90
37844;DHT22;63793;57.632;18.292;2023-08-20T09:43:59;20.50;99.90
37844;DHT22;63793;57.632;18.292;2023-08-20T09:46:27;20.50;99.90
37844;DHT22;63793;57.632;18.292;2023-08-20T09:48:57;20.40;99.90
37844;DHT22;63793;57.632;18.292;2023-08-20T09:51:26;20.40;99.90
37844;DHT22;63793;57.632;18.292;2023-08-20T09:54:28;20.40;99.90
37844;DHT22;63793;57.632;18.292;2023-08-20T09:57:01;20.30;99.90
37844;DHT22;63793;57.632;18.292;2023-08-20T09:59:32;20.30;99.90
37844;DHT22;63793;57.632;18.292;2023-08-20T10:02:02;20.20;99.90
37844;DHT22;63793;57.632;18.292;2023-08-20T10:04:30;20.30;99.90
37844;DHT22;63793;57.632;18.292;2023-08-20T10:06:58;20.30;99.90
37844;DHT22;63793;57.632;18.292;2023-08-20T10:09:25;20.30;99.90
37844;DHT22;63793;57.632;18.292;2023-08-20T10:11:52;20.20;99.90
37844;DHT22;63793;57.632;18.292;2023-08-20T10:14:19;20.30;99.90
37844;DHT22;63793;57.632;18.292;2023-08-20T10:16:46;20.20;99.90
37844;DHT22;63793;57.632;18.292;2023-08-20T10:19:16;20.20;99.90
37844;DHT22;63793;57.632;18.292;2023-08-20T10:21:46;20.30;99.90
37844;DHT22;63793;57.632;18.292;2023-08-20T10:24:19;20.30;99.90
37844;DHT22;63793;57.632;18.292;2023-08-20T10:26:47;20.30;99.90
37844;DHT22;63793;57.632;18.292;2023-08-20T10:29:34;20.30;99.90
37844;DHT22;63793;57.632;18.292;2023-08-20T10:32:03;20.30;99.90
37844;DHT22;63793;57.632;18.292;2023-08-20T10:34:35;20.30;99.90
37844;DHT22;63793;57.632;18.292;2023-08-20T10:37:08;20.40;99.90
37844;DHT22;63793;57.632;18.292;2023-08-20T10:39:35;20.40;99.90
37844;DHT22;63793;57.632;18.292;2023-08-20T10:42:28;20.40;99.90
37844;DHT22;63793;57.632;18.292;2023-08-20T10:50:08;20.40;99.90
37844;DHT22;63793;57.632;18.292;2023-08-20T10:52:38;20.30;99.90
37844;DHT22;63793;57.632;18.292;2023-08-20T10:55:07;20.30;99.90
37844;DHT22;63793;57.632;18.292;2023-08-20T10:57:36;20.30;99.90
37844;DHT22;63793;57.632;18.292;2023-08-20T11:00:05;20.30;99.90
37844;DHT22;63793;57.632;18.292;2023-08-20T11:02:42;20.30;99.90
37844;DHT22;63793;57.632;18.292;2023-08-20T11:05:19;20.20;99.90
37844;DHT22;63793;57.632;18.292;2023-08-20T11:07:48;20.20;99.90
37844;DHT22;63793;57.632;18.292;2023-08-20T11:10:16;20.10;99.90
37844;DHT22;63793;57.632;18.292;2023-08-20T11:12:46;20.10;99.90
37844;DHT22;63793;57.632;18.292;2023-08-20T11:15:13;20.00;99.90
37844;DHT22;63793;57.632;18.292;2023-08-20T11:17:47;20.10;99.90
37844;DHT22;63793;57.632;18.292;2023-08-20T11:20:17;20.00;99.90
37844;DHT22;63793;57.632;18.292;2023-08-20T11:22:44;20.10;99.90
37844;DHT22;63793;57.632;18.292;2023-08-20T11:25:12;20.00;99.90
37844;DHT22;63793;57.632;18.292;2023-08-20T11:27:43;20.00;99.90
37844;DHT22;63793;57.632;18.292;2023-08-20T11:30:11;20.00;99.90
37844;DHT22;63793;57.632;18.292;2023-08-20T11:32:41;20.00;99.90
37844;DHT22;63793;57.632;18.292;2023-08-20T11:35:09;19.90;99.90
37844;DHT22;63793;57.632;18.292;2023-08-20T11:37:37;19.90;99.90
37844;DHT22;63793;57.632;18.292;2023-08-20T11:40:07;19.90;99.90
37844;DHT22;63793;57.632;18.292;2023-08-20T11:42:34;19.90;99.90
37844;DHT22;63793;57.632;18.292;2023-08-20T11:45:01;19.90;99.90
37844;DHT22;63793;57.632;18.292;2023-08-20T11:47:28;19.90;99.90
37844;DHT22;63793;57.632;18.292;2023-08-20T11:50:03;20.00;99.90
37844;DHT22;63793;57.632;18.292;2023-08-20T11:52:32;20.00;99.90
37844;DHT22;63793;57.632;18.292;2023-08-20T11:55:00;20.10;99.90
37844;DHT22;63793;57.632;18.292;2023-08-20T11:57:29;20.10;99.90
37844;DHT22;63793;57.632;18.292;2023-08-20T12:00:01;20.20;99.90
37844;DHT22;63793;57.632;18.292;2023-08-20T12:02:43;20.20;99.90
37844;DHT22;63793;57.632;18.292;2023-08-20T12:05:10;20.20;99.90
37844;DHT22;63793;57.632;18.292;2023-08-20T12:07:37;20.20;99.90
37844;DHT22;63793;57.632;18.292;2023-08-20T12:10:20;20.30;99.90
37844;DHT22;63793;57.632;18.292;2023-08-20T12:12:48;20.30;99.90
37844;DHT22;63793;57.632;18.292;2023-08-20T12:15:16;20.30;99.90
37844;DHT22;63793;57.632;18.292;2023-08-20T12:17:43;20.30;99.90
37844;DHT22;63793;57.632;18.292;2023-08-20T12:20:10;20.40;99.90
37844;DHT22;63793;57.632;18.292;2023-08-20T12:22:40;20.50;99.90
37844;DHT22;63793;57.632;18.292;2023-08-20T12:25:07;20.60;99.90
37844;DHT22;63793;57.632;18.292;2023-08-20T12:27:34;20.60;99.90
37844;DHT22;63793;57.632;18.292;2023-08-20T12:30:02;20.70;99.90
37844;DHT22;63793;57.632;18.292;2023-08-20T12:32:29;20.70;99.90
37844;DHT22;63793;57.632;18.292;2023-08-20T12:34:56;20.80;99.90
37844;DHT22;63793;57.632;18.292;2023-08-20T12:37:23;20.80;99.90
37844;DHT22;63793;57.632;18.292;2023-08-20T12:39:50;20.80;99.90
37844;DHT22;63793;57.632;18.292;2023-08-20T12:42:17;20.80;99.90
37844;DHT22;63793;57.632;18.292;2023-08-20T12:44:44;20.80;99.90
37844;DHT22;63793;57.632;18.292;2023-08-20T12:47:11;20.80;99.90
37844;DHT22;63793;57.632;18.292;2023-08-20T12:49:38;20.80;99.90
37844;DHT22;63793;57.632;18.292;2023-08-20T12:52:05;20.90;99.90
37844;DHT22;63793;57.632;18.292;2023-08-20T12:54:31;21.00;99.90
37844;DHT22;63793;57.632;18.292;2023-08-20T12:56:59;21.10;99.90
37844;DHT22;63793;57.632;18.292;2023-08-20T12:59:25;21.20;99.90
37844;DHT22;63793;57.632;18.292;2023-08-20T13:01:53;21.20;99.90
37844;DHT22;63793;57.632;18.292;2023-08-20T13:04:20;21.20;99.90
37844;DHT22;63793;57.632;18.292;2023-08-20T13:06:47;21.20;99.90
37844;DHT22;63793;57.632;18.292;2023-08-20T13:09:14;21.10;99.90
37844;DHT22;63793;57.632;18.292;2023-08-20T13:11:43;21.00;99.90
37844;DHT22;63793;57.632;18.292;2023-08-20T13:14:11;20.90;99.90
37844;DHT22;63793;57.632;18.292;2023-08-20T13:16:38;20.90;99.90
37844;DHT22;63793;57.632;18.292;2023-08-20T13:19:05;21.00;99.90
37844;DHT22;63793;57.632;18.292;2023-08-20T13:21:32;21.00;99.90
37844;DHT22;63793;57.632;18.292;2023-08-20T13:23:59;21.00;99.90
37844;DHT22;63793;57.632;18.292;2023-08-20T13:26:26;21.10;99.90
37844;DHT22;63793;57.632;18.292;2023-08-20T13:28:53;21.10;99.90
37844;DHT22;63793;57.632;18.292;2023-08-20T13:31:20;21.10;99.90
37844;DHT22;63793;57.632;18.292;2023-08-20T13:33:47;21.20;99.90
37844;DHT22;63793;57.632;18.292;2023-08-20T13:36:14;21.20;99.90
37844;DHT22;63793;57.632;18.292;2023-08-20T13:38:41;21.20;99.90
37844;DHT22;63793;57.632;18.292;2023-08-20T13:41:08;21.20;99.90
37844;DHT22;63793;57.632;18.292;2023-08-20T13:43:36;21.30;99.90
37844;DHT22;63793;57.632;18.292;2023-08-20T13:46:03;21.40;99.90
37844;DHT22;63793;57.632;18.292;2023-08-20T13:48:30;21.40;99.90
37844;DHT22;63793;57.632;18.292;2023-08-20T13:50:57;21.50;99.90
37844;DHT22;63793;57.632;18.292;2023-08-20T13:53:26;21.50;99.90
37844;DHT22;63793;57.632;18.292;2023-08-20T13:55:53;21.50;99.90
37844;DHT22;63793;57.632;18.292;2023-08-20T13:58:22;21.40;99.90
37844;DHT22;63793;57.632;18.292;2023-08-20T14:00:48;21.40;99.90
37844;DHT22;63793;57.632;18.292;2023-08-20T14:03:15;21.30;99.90
37844;DHT22;63793;57.632;18.292;2023-08-20T14:05:42;21.30;99.90
37844;DHT22;63793;57.632;18.292;2023-08-20T14:08:11;21.20;99.90
37844;DHT22;63793;57.632;18.292;2023-08-20T14:10:38;21.20;99.90
37844;DHT22;63793;57.632;18.292;2023-08-20T14:13:05;21.10;99.90
37844;DHT22;63793;57.632;18.292;2023-08-20T14:15:32;21.10;99.90
37844;DHT22;63793;57.632;18.292;2023-08-20T14:17:59;21.10;99.90
37844;DHT22;63793;57.632;18.292;2023-08-20T14:20:26;21.10;99.90
37844;DHT22;63793;57.632;18.292;2023-08-20T14:22:53;21.00;99.90
37844;DHT22;63793;57.632;18.292;2023-08-20T14:25:20;21.00;99.90
37844;DHT22;63793;57.632;18.292;2023-08-20T14:27:47;21.00;99.90
37844;DHT22;63793;57.632;18.292;2023-08-20T14:30:14;21.00;99.90
37844;DHT22;63793;57.632;18.292;2023-08-20T14:32:41;21.00;99.90
37844;DHT22;63793;57.632;18.292;2023-08-20T14:35:09;20.90;99.90
37844;DHT22;63793;57.632;18.292;2023-08-20T14:37:36;20.90;99.90
37844;DHT22;63793;57.632;18.292;2023-08-20T14:40:03;20.90;99.90
37844;DHT22;63793;57.632;18.292;2023-08-20T14:42:33;20.90;99.90
37844;DHT22;63793;57.632;18.292;2023-08-20T14:45:01;20.90;99.90
37844;DHT22;63793;57.632;18.292;2023-08-20T14:47:29;20.90;99.90
37844;DHT22;63793;57.632;18.292;2023-08-20T14:49:56;20.80;99.90
37844;DHT22;63793;57.632;18.292;2023-08-20T14:52:23;20.80;99.90
37844;DHT22;63793;57.632;18.292;2023-08-20T14:54:50;20.80;99.90
37844;DHT22;63793;57.632;18.292;2023-08-20T14:57:18;20.80;99.90
37844;DHT22;63793;57.632;18.292;2023-08-20T14:59:45;20.80;99.90
37844;DHT22;63793;57.632;18.292;2023-08-20T15:02:12;20.80;99.90
37844;DHT22;63793;57.632;18.292;2023-08-20T15:04:40;20.80;99.90
37844;DHT22;63793;57.632;18.292;2023-08-20T15:07:06;20.80;99.90
37844;DHT22;63793;57.632;18.292;2023-08-20T15:09:33;20.80;99.90
37844;DHT22;63793;57.632;18.292;2023-08-20T15:12:00;20.80;99.90
37844;DHT22;63793;57.632;18.292;2023-08-20T15:14:27;20.70;99.90
37844;DHT22;63793;57.632;18.292;2023-08-20T15:16:54;20.60;99.90
37844;DHT22;63793;57.632;18.292;2023-08-20T15:19:21;20.50;99.90
37844;DHT22;63793;57.632;18.292;2023-08-20T15:21:48;20.40;99.90
37844;DHT22;63793;57.632;18.292;2023-08-20T15:24:15;20.30;99.90
37844;DHT22;63793;57.632;18.292;2023-08-20T15:26:42;20.30;99.90
37844;DHT22;63793;57.632;18.292;2023-08-20T15:29:08;20.30;99.90